sensor_id;sensor_type;location;lat;lon;timestamp;pressure;altitude;pressure_sealevel;temperature
8533;BMP280;4304;53.876;10.662;2023-09-12T00:01:07;101041.81;;;19.55
8533;BMP280;4304;53.876;10.662;2023-09-12T00:03:34;101043.13;;;19.51
8533;BMP280;4304;53.876;10.662;2023-09-12T00:06:00;101052.38;;;19.55
8533;BMP280;4304;53.876;10.662;2023-09-12T00:08:26;101044.47;;;19.55
8533;BMP280;4304;53.876;10.662;2023-09-12T00:11:06;101047.63;;;19.59
8533;BMP280;4304;53.876;10.662;2023-09-12T00:13:35;101042.03;;;19.62
8533;BMP280;4304;53.876;10.662;2023-09-12T00:16:01;101045.50;;;19.62
8533;BMP280;4304;53.876;10.662;2023-09-12T00:18:26;101051.91;;;19.60
8533;BMP280;4304;53.876;10.662;2023-09-12T00:20:52;101049.59;;;19.57
8533;BMP280;4304;53.876;10.662;2023-09-12T00:23:18;101046.56;;;19.52
8533;BMP280;4304;53.876;10.662;2023-09-12T00:25:43;101048.91;;;19.55
8533;BMP280;4304;53.876;10.662;2023-09-12T00:28:09;101057.41;;;19.49
8533;BMP280;4304;53.876;10.662;2023-09-12T00:30:34;101053.66;;;19.51
8533;BMP280;4304;53.876;10.662;2023-09-12T00:32:59;101064.06;;;19.53
8533;BMP280;4304;53.876;10.662;2023-09-12T00:35:25;101067.81;;;19.50
8533;BMP280;4304;53.876;10.662;2023-09-12T00:37:50;101060.06;;;19.49
8533;BMP280;4304;53.876;10.662;2023-09-12T00:40:15;101049.84;;;19.46
8533;BMP280;4304;53.876;10.662;2023-09-12T00:42:41;101055.41;;;19.43
8533;BMP280;4304;53.876;10.662;2023-09-12T00:45:06;101062.03;;;19.47
8533;BMP280;4304;53.876;10.662;2023-09-12T00:47:32;101057.75;;;19.46
8533;BMP280;4304;53.876;10.662;2023-09-12T00:49:59;101063.97;;;19.45
8533;BMP280;4304;53.876;10.662;2023-09-12T00:52:26;101081.75;;;19.43
8533;BMP280;4304;53.876;10.662;2023-09-12T00:54:53;101082.44;;;19.45
8533;BMP280;4304;53.876;10.662;2023-09-12T00:57:21;101076.19;;;19.46
8533;BMP280;4304;53.876;10.662;2023-09-12T00:59:47;101082.28;;;19.46
8533;BMP280;4304;53.876;10.662;2023-09-12T01:02:13;101082.44;;;19.45
8533;BMP280;4304;53.876;10.662;2023-09-12T01:04:39;101086.19;;;19.42
8533;BMP280;4304;53.876;10.662;2023-09-12T01:07:05;101082.59;;;19.43
8533;BMP280;4304;53.876;10.662;2023-09-12T01:09:31;101089.00;;;19.41
8533;BMP280;4304;53.876;10.662;2023-09-12T01:11:57;101083.66;;;19.33
8533;BMP280;4304;53.876;10.662;2023-09-12T01:14:22;101078.22;;;19.34
8533;BMP280;4304;53.876;10.662;2023-09-12T01:16:48;101081.31;;;19.30
8533;BMP280;4304;53.876;10.662;2023-09-12T01:19:14;101081.97;;;19.32
8533;BMP280;4304;53.876;10.662;2023-09-12T01:24:52;101061.66;;;19.25
8533;BMP280;4304;53.876;10.662;2023-09-12T01:30:00;101067.09;;;19.23
8533;BMP280;4304;53.876;10.662;2023-09-12T01:32:26;101070.97;;;19.19
8533;BMP280;4304;53.876;10.662;2023-09-12T01:34:51;101059.09;;;19.15
8533;BMP280;4304;53.876;10.662;2023-09-12T01:37:17;101064.06;;;19.18
8533;BMP280;4304;53.876;10.662;2023-09-12T01:39:42;101067.81;;;19.16
8533;BMP280;4304;53.876;10.662;2023-09-12T01:42:11;101069.47;;;19.17
8533;BMP280;4304;53.876;10.662;2023-09-12T01:44:37;101066.09;;;19.07
8533;BMP280;4304;53.876;10.662;2023-09-12T01:47:04;101077.16;;;19.10
8533;BMP280;4304;53.876;10.662;2023-09-12T01:49:31;101072.31;;;19.06
8533;BMP280;4304;53.876;10.662;2023-09-12T01:51:58;101082.31;;;19.02
8533;BMP280;4304;53.876;10.662;2023-09-12T01:54:26;101070.56;;;18.97
8533;BMP280;4304;53.876;10.662;2023-09-12T01:56:53;101062.78;;;18.95
8533;BMP280;4304;53.876;10.662;2023-09-12T01:59:19;101055.19;;;18.92
8533;BMP280;4304;53.876;10.662;2023-09-12T02:01:44;101043.97;;;18.90
8533;BMP280;4304;53.876;10.662;2023-09-12T02:04:10;101044.13;;;18.89
8533;BMP280;4304;53.876;10.662;2023-09-12T02:06:35;101034.41;;;18.89
8533;BMP280;4304;53.876;10.662;2023-09-12T02:09:01;101037.19;;;18.88
8533;BMP280;4304;53.876;10.662;2023-09-12T02:11:27;101026.13;;;18.84
8533;BMP280;4304;53.876;10.662;2023-09-12T02:13:52;101020.19;;;18.83
8533;BMP280;4304;53.876;10.662;2023-09-12T02:16:18;101014.78;;;18.84
8533;BMP280;4304;53.876;10.662;2023-09-12T02:18:43;101018.38;;;18.83
8533;BMP280;4304;53.876;10.662;2023-09-12T02:21:08;101014.91;;;18.83
8533;BMP280;4304;53.876;10.662;2023-09-12T02:23:34;101016.41;;;18.85
8533;BMP280;4304;53.876;10.662;2023-09-12T02:25:59;101011.00;;;18.86
8533;BMP280;4304;53.876;10.662;2023-09-12T02:28:24;101003.09;;;18.86
8533;BMP280;4304;53.876;10.662;2023-09-12T02:30:50;101010.47;;;18.83
8533;BMP280;4304;53.876;10.662;2023-09-12T02:33:15;101000.69;;;18.76
8533;BMP280;4304;53.876;10.662;2023-09-12T02:35:40;101007.00;;;18.83
8533;BMP280;4304;53.876;10.662;2023-09-12T02:38:06;101004.97;;;18.77
8533;BMP280;4304;53.876;10.662;2023-09-12T02:40:31;101022.97;;;18.81
8533;BMP280;4304;53.876;10.662;2023-09-12T02:42:57;101040.03;;;18.77
8533;BMP280;4304;53.876;10.662;2023-09-12T02:45:22;101046.13;;;18.78
8533;BMP280;4304;53.876;10.662;2023-09-12T02:47:47;101047.22;;;18.75
8533;BMP280;4304;53.876;10.662;2023-09-12T02:50:13;101074.56;;;18.74
8533;BMP280;4304;53.876;10.662;2023-09-12T02:52:38;101073.03;;;18.72
8533;BMP280;4304;53.876;10.662;2023-09-12T02:55:04;101084.16;;;18.66
8533;BMP280;4304;53.876;10.662;2023-09-12T02:57:29;101079.47;;;18.60
8533;BMP280;4304;53.876;10.662;2023-09-12T02:59:54;101088.91;;;18.62
8533;BMP280;4304;53.876;10.662;2023-09-12T03:02:20;101098.28;;;18.65
8533;BMP280;4304;53.876;10.662;2023-09-12T03:04:45;101084.44;;;18.63
8533;BMP280;4304;53.876;10.662;2023-09-12T03:07:10;101089.03;;;18.61
8533;BMP280;4304;53.876;10.662;2023-09-12T03:09:35;101094.84;;;18.64
8533;BMP280;4304;53.876;10.662;2023-09-12T03:12:04;101099.13;;;18.65
8533;BMP280;4304;53.876;10.662;2023-09-12T03:14:29;101095.50;;;18.66
8533;BMP280;4304;53.876;10.662;2023-09-12T03:16:54;101090.25;;;18.66
8533;BMP280;4304;53.876;10.662;2023-09-12T03:19:21;101091.34;;;18.64
8533;BMP280;4304;53.876;10.662;2023-09-12T03:21:46;101072.09;;;18.63
8533;BMP280;4304;53.876;10.662;2023-09-12T03:24:12;101064.22;;;18.63
8533;BMP280;4304;53.876;10.662;2023-09-12T03:26:37;101070.00;;;18.67
8533;BMP280;4304;53.876;10.662;2023-09-12T03:29:03;101069.34;;;18.65
8533;BMP280;4304;53.876;10.662;2023-09-12T03:31:29;101075.28;;;18.67
8533;BMP280;4304;53.876;10.662;2023-09-12T03:33:54;101086.66;;;18.67
8533;BMP280;4304;53.876;10.662;2023-09-12T03:36:20;101091.94;;;18.67
8533;BMP280;4304;53.876;10.662;2023-09-12T03:38:45;101088.28;;;18.68
8533;BMP280;4304;53.876;10.662;2023-09-12T03:41:11;101083.84;;;18.69
8533;BMP280;4304;53.876;10.662;2023-09-12T03:43:37;101091.31;;;18.73
8533;BMP280;4304;53.876;10.662;2023-09-12T03:46:02;101094.94;;;18.72
8533;BMP280;4304;53.876;10.662;2023-09-12T03:48:29;101095.22;;;18.69
8533;BMP280;4304;53.876;10.662;2023-09-12T03:50:56;101091.59;;;18.70
8533;BMP280;4304;53.876;10.662;2023-09-12T03:53:21;101104.63;;;18.72
8533;BMP280;4304;53.876;10.662;2023-09-12T03:55:46;101109.59;;;18.75
8533;BMP280;4304;53.876;10.662;2023-09-12T03:58:12;101113.06;;;18.75
8533;BMP280;4304;53.876;10.662;2023-09-12T04:00:37;101110.44;;;18.75
8533;BMP280;4304;53.876;10.662;2023-09-12T04:03:03;101105.69;;;18.79
8533;BMP280;4304;53.876;10.662;2023-09-12T04:05:28;101103.63;;;18.82
8533;BMP280;4304;53.876;10.662;2023-09-12T04:07:53;101102.09;;;18.80
8533;BMP280;4304;53.876;10.662;2023-09-12T04:10:20;101116.09;;;18.80
8533;BMP280;4304;53.876;10.662;2023-09-12T04:12:45;101108.03;;;18.82
8533;BMP280;4304;53.876;10.662;2023-09-12T04:15:11;101104.97;;;18.86
8533;BMP280;4304;53.876;10.662;2023-09-12T04:17:36;101105.38;;;18.91
8533;BMP280;4304;53.876;10.662;2023-09-12T04:20:01;101111.59;;;18.90
8533;BMP280;4304;53.876;10.662;2023-09-12T04:22:27;101110.94;;;18.88
8533;BMP280;4304;53.876;10.662;2023-09-12T04:24:53;101095.13;;;18.88
8533;BMP280;4304;53.876;10.662;2023-09-12T04:27:19;101103.03;;;18.88
8533;BMP280;4304;53.876;10.662;2023-09-12T04:29:44;101096.66;;;18.90
8533;BMP280;4304;53.876;10.662;2023-09-12T04:32:09;101080.84;;;18.90
8533;BMP280;4304;53.876;10.662;2023-09-12T04:34:35;101100.91;;;18.91
8533;BMP280;4304;53.876;10.662;2023-09-12T04:37:00;101094.00;;;18.90
8533;BMP280;4304;53.876;10.662;2023-09-12T04:39:27;101084.28;;;18.91
8533;BMP280;4304;53.876;10.662;2023-09-12T04:41:53;101090.38;;;18.91
8533;BMP280;4304;53.876;10.662;2023-09-12T04:44:18;101079.84;;;18.91
8533;BMP280;4304;53.876;10.662;2023-09-12T04:46:44;101065.44;;;18.95
8533;BMP280;4304;53.876;10.662;2023-09-12T04:49:09;101066.81;;;18.99
8533;BMP280;4304;53.876;10.662;2023-09-12T04:51:34;101069.81;;;19.04
8533;BMP280;4304;53.876;10.662;2023-09-12T04:54:00;101049.75;;;19.03
8533;BMP280;4304;53.876;10.662;2023-09-12T04:56:25;101045.44;;;19.02
8533;BMP280;4304;53.876;10.662;2023-09-12T04:58:50;101052.19;;;19.05
8533;BMP280;4304;53.876;10.662;2023-09-12T05:01:16;101048.91;;;19.03
8533;BMP280;4304;53.876;10.662;2023-09-12T05:03:42;101048.16;;;19.10
8533;BMP280;4304;53.876;10.662;2023-09-12T05:06:08;101038.69;;;19.17
8533;BMP280;4304;53.876;10.662;2023-09-12T05:08:40;101033.78;;;19.22
8533;BMP280;4304;53.876;10.662;2023-09-12T05:11:21;101038.63;;;19.27
8533;BMP280;4304;53.876;10.662;2023-09-12T05:13:47;101047.50;;;19.26
8533;BMP280;4304;53.876;10.662;2023-09-12T05:16:12;101046.00;;;19.23
8533;BMP280;4304;53.876;10.662;2023-09-12T05:18:39;101052.22;;;19.22
8533;BMP280;4304;53.876;10.662;2023-09-12T05:21:05;101048.63;;;19.23
8533;BMP280;4304;53.876;10.662;2023-09-12T05:23:31;101047.94;;;19.21
8533;BMP280;4304;53.876;10.662;2023-09-12T05:25:56;101040.03;;;19.21
8533;BMP280;4304;53.876;10.662;2023-09-12T05:28:22;101061.72;;;19.15
8533;BMP280;4304;53.876;10.662;2023-09-12T05:30:47;101068.81;;;19.15
8533;BMP280;4304;53.876;10.662;2023-09-12T05:33:13;101073.22;;;19.14
8533;BMP280;4304;53.876;10.662;2023-09-12T05:35:38;101086.41;;;19.14
8533;BMP280;4304;53.876;10.662;2023-09-12T05:38:03;101092.72;;;19.21
8533;BMP280;4304;53.876;10.662;2023-09-12T05:40:29;101113.50;;;19.24
8533;BMP280;4304;53.876;10.662;2023-09-12T05:42:54;101111.16;;;19.21
8533;BMP280;4304;53.876;10.662;2023-09-12T05:45:20;101115.75;;;19.19
8533;BMP280;4304;53.876;10.662;2023-09-12T05:47:47;101146.28;;;19.22
8533;BMP280;4304;53.876;10.662;2023-09-12T05:50:13;101149.06;;;19.20
8533;BMP280;4304;53.876;10.662;2023-09-12T05:52:38;101155.00;;;19.22
8533;BMP280;4304;53.876;10.662;2023-09-12T05:55:04;101163.59;;;19.24
8533;BMP280;4304;53.876;10.662;2023-09-12T05:57:31;101156.34;;;19.26
8533;BMP280;4304;53.876;10.662;2023-09-12T05:59:58;101154.03;;;19.23
8533;BMP280;4304;53.876;10.662;2023-09-12T06:02:27;101161.41;;;19.20
8533;BMP280;4304;53.876;10.662;2023-09-12T06:04:52;101158.44;;;19.23
8533;BMP280;4304;53.876;10.662;2023-09-12T06:07:18;101151.53;;;19.22
8533;BMP280;4304;53.876;10.662;2023-09-12T06:09:43;101145.44;;;19.21
8533;BMP280;4304;53.876;10.662;2023-09-12T06:12:08;101147.78;;;19.24
8533;BMP280;4304;53.876;10.662;2023-09-12T06:14:35;101144.47;;;19.22
8533;BMP280;4304;53.876;10.662;2023-09-12T06:17:01;101137.84;;;19.18
8533;BMP280;4304;53.876;10.662;2023-09-12T06:19:26;101126.97;;;19.21
8533;BMP280;4304;53.876;10.662;2023-09-12T06:21:52;101124.13;;;19.15
8533;BMP280;4304;53.876;10.662;2023-09-12T06:24:22;101117.19;;;19.14
8533;BMP280;4304;53.876;10.662;2023-09-12T06:26:50;101114.41;;;19.15
8533;BMP280;4304;53.876;10.662;2023-09-12T06:29:38;101112.75;;;19.14
8533;BMP280;4304;53.876;10.662;2023-09-12T06:32:12;101101.38;;;19.14
8533;BMP280;4304;53.876;10.662;2023-09-12T06:34:38;101118.69;;;19.16
8533;BMP280;4304;53.876;10.662;2023-09-12T06:37:04;101102.88;;;19.16
8533;BMP280;4304;53.876;10.662;2023-09-12T06:39:29;101112.31;;;19.19
8533;BMP280;4304;53.876;10.662;2023-09-12T06:41:54;101122.69;;;19.20
8533;BMP280;4304;53.876;10.662;2023-09-12T06:44:20;101122.41;;;19.23
8533;BMP280;4304;53.876;10.662;2023-09-12T06:46:45;101129.72;;;19.29
8533;BMP280;4304;53.876;10.662;2023-09-12T06:49:11;101139.13;;;19.31
8533;BMP280;4304;53.876;10.662;2023-09-12T06:51:36;101130.09;;;19.34
8533;BMP280;4304;53.876;10.662;2023-09-12T06:54:02;101121.06;;;19.36
8533;BMP280;4304;53.876;10.662;2023-09-12T06:56:28;101122.47;;;19.31
8533;BMP280;4304;53.876;10.662;2023-09-12T06:58:53;101126.50;;;19.35
8533;BMP280;4304;53.876;10.662;2023-09-12T07:01:20;101131.75;;;19.35
8533;BMP280;4304;53.876;10.662;2023-09-12T07:03:46;101129.50;;;19.40
8533;BMP280;4304;53.876;10.662;2023-09-12T07:06:12;101129.75;;;19.46
8533;BMP280;4304;53.876;10.662;2023-09-12T07:08:37;101130.13;;;19.51
8533;BMP280;4304;53.876;10.662;2023-09-12T07:11:04;101132.47;;;19.54
8533;BMP280;4304;53.876;10.662;2023-09-12T07:13:32;101135.25;;;19.53
8533;BMP280;4304;53.876;10.662;2023-09-12T07:15:58;101141.84;;;19.57
8533;BMP280;4304;53.876;10.662;2023-09-12T07:18:24;101155.56;;;19.60
8533;BMP280;4304;53.876;10.662;2023-09-12T07:21:04;101154.84;;;19.68
8533;BMP280;4304;53.876;10.662;2023-09-12T07:23:31;101144.28;;;19.68
8533;BMP280;4304;53.876;10.662;2023-09-12T07:25:57;101142.03;;;19.72
8533;BMP280;4304;53.876;10.662;2023-09-12T07:28:23;101144.22;;;19.77
8533;BMP280;4304;53.876;10.662;2023-09-12T07:30:49;101146.53;;;19.80
8533;BMP280;4304;53.876;10.662;2023-09-12T07:33:14;101138.88;;;19.86
8533;BMP280;4304;53.876;10.662;2023-09-12T07:35:40;101141.06;;;19.91
8533;BMP280;4304;53.876;10.662;2023-09-12T07:38:05;101139.47;;;19.98
8533;BMP280;4304;53.876;10.662;2023-09-12T07:40:31;101132.91;;;20.02
8533;BMP280;4304;53.876;10.662;2023-09-12T07:42:56;101141.50;;;20.04
8533;BMP280;4304;53.876;10.662;2023-09-12T07:45:21;101133.13;;;20.08
8533;BMP280;4304;53.876;10.662;2023-09-12T07:47:47;101136.13;;;20.13
8533;BMP280;4304;53.876;10.662;2023-09-12T07:50:13;101134.84;;;20.17
8533;BMP280;4304;53.876;10.662;2023-09-12T07:52:38;101134.38;;;20.21
8533;BMP280;4304;53.876;10.662;2023-09-12T07:55:04;101137.84;;;20.22
8533;BMP280;4304;53.876;10.662;2023-09-12T07:57:30;101142.91;;;20.15
8533;BMP280;4304;53.876;10.662;2023-09-12T07:59:56;101138.78;;;20.13
8533;BMP280;4304;53.876;10.662;2023-09-12T08:02:22;101140.56;;;20.13
8533;BMP280;4304;53.876;10.662;2023-09-12T08:04:49;101150.97;;;20.14
8533;BMP280;4304;53.876;10.662;2023-09-12T08:07:16;101144.72;;;20.15
8533;BMP280;4304;53.876;10.662;2023-09-12T08:09:52;101156.09;;;20.15
8533;BMP280;4304;53.876;10.662;2023-09-12T08:12:19;101152.34;;;20.18
8533;BMP280;4304;53.876;10.662;2023-09-12T08:14:44;101150.00;;;20.15
8533;BMP280;4304;53.876;10.662;2023-09-12T08:17:11;101140.94;;;20.17
8533;BMP280;4304;53.876;10.662;2023-09-12T08:19:36;101148.41;;;20.22
8533;BMP280;4304;53.876;10.662;2023-09-12T08:22:02;101136.31;;;20.19
8533;BMP280;4304;53.876;10.662;2023-09-12T08:24:27;101140.22;;;20.33
8533;BMP280;4304;53.876;10.662;2023-09-12T08:26:53;101152.78;;;20.39
8533;BMP280;4304;53.876;10.662;2023-09-12T08:29:19;101140.97;;;20.43
8533;BMP280;4304;53.876;10.662;2023-09-12T08:31:45;101150.72;;;20.50
8533;BMP280;4304;53.876;10.662;2023-09-12T08:34:12;101148.34;;;20.64
8533;BMP280;4304;53.876;10.662;2023-09-12T08:36:38;101161.78;;;20.71
8533;BMP280;4304;53.876;10.662;2023-09-12T08:39:03;101157.38;;;20.79
8533;BMP280;4304;53.876;10.662;2023-09-12T08:41:30;101170.16;;;20.92
8533;BMP280;4304;53.876;10.662;2023-09-12T08:43:57;101179.91;;;20.99
8533;BMP280;4304;53.876;10.662;2023-09-12T08:46:22;101184.94;;;21.10
8533;BMP280;4304;53.876;10.662;2023-09-12T08:48:49;101186.28;;;21.22
8533;BMP280;4304;53.876;10.662;2023-09-12T08:51:15;101189.50;;;21.41
8533;BMP280;4304;53.876;10.662;2023-09-12T08:53:40;101191.09;;;21.67
8533;BMP280;4304;53.876;10.662;2023-09-12T08:56:06;101200.06;;;21.82
8533;BMP280;4304;53.876;10.662;2023-09-12T08:58:32;101212.75;;;21.86
8533;BMP280;4304;53.876;10.662;2023-09-12T09:00:59;101209.16;;;21.87
8533;BMP280;4304;53.876;10.662;2023-09-12T09:03:25;101215.44;;;21.94
8533;BMP280;4304;53.876;10.662;2023-09-12T09:05:52;101220.38;;;21.74
8533;BMP280;4304;53.876;10.662;2023-09-12T09:08:18;101216.50;;;21.60
8533;BMP280;4304;53.876;10.662;2023-09-12T09:10:58;101208.25;;;21.55
8533;BMP280;4304;53.876;10.662;2023-09-12T09:13:27;101206.44;;;21.56
8533;BMP280;4304;53.876;10.662;2023-09-12T09:16:16;101203.28;;;21.52
8533;BMP280;4304;53.876;10.662;2023-09-12T09:18:51;101206.78;;;21.61
8533;BMP280;4304;53.876;10.662;2023-09-12T09:21:17;101195.25;;;21.78
8533;BMP280;4304;53.876;10.662;2023-09-12T09:23:47;101194.09;;;21.96
8533;BMP280;4304;53.876;10.662;2023-09-12T09:26:12;101198.91;;;22.08
8533;BMP280;4304;53.876;10.662;2023-09-12T09:28:38;101205.41;;;22.30
8533;BMP280;4304;53.876;10.662;2023-09-12T09:31:05;101206.22;;;22.54
8533;BMP280;4304;53.876;10.662;2023-09-12T09:33:35;101205.13;;;22.86
8533;BMP280;4304;53.876;10.662;2023-09-12T09:36:05;101205.53;;;23.29
8533;BMP280;4304;53.876;10.662;2023-09-12T09:38:31;101194.25;;;23.88
8533;BMP280;4304;53.876;10.662;2023-09-12T09:40:59;101195.56;;;23.92
8533;BMP280;4304;53.876;10.662;2023-09-12T09:43:24;101200.44;;;23.80
8533;BMP280;4304;53.876;10.662;2023-09-12T09:45:50;101211.31;;;23.63
8533;BMP280;4304;53.876;10.662;2023-09-12T09:48:22;101222.69;;;23.41
8533;BMP280;4304;53.876;10.662;2023-09-12T09:50:48;101212.09;;;23.41
8533;BMP280;4304;53.876;10.662;2023-09-12T09:53:13;101209.03;;;23.22
8533;BMP280;4304;53.876;10.662;2023-09-12T09:55:39;101218.53;;;23.09
8533;BMP280;4304;53.876;10.662;2023-09-12T09:58:05;101201.97;;;23.07
8533;BMP280;4304;53.876;10.662;2023-09-12T10:00:33;101206.94;;;23.02
8533;BMP280;4304;53.876;10.662;2023-09-12T10:02:59;101209.63;;;22.94
8533;BMP280;4304;53.876;10.662;2023-09-12T10:05:26;101201.66;;;23.02
8533;BMP280;4304;53.876;10.662;2023-09-12T10:07:54;101208.09;;;22.99
8533;BMP280;4304;53.876;10.662;2023-09-12T10:10:22;101211.22;;;23.11
8533;BMP280;4304;53.876;10.662;2023-09-12T10:12:51;101214.56;;;23.05
8533;BMP280;4304;53.876;10.662;2023-09-12T10:15:21;101212.72;;;23.13
8533;BMP280;4304;53.876;10.662;2023-09-12T10:17:56;101207.75;;;23.10
8533;BMP280;4304;53.876;10.662;2023-09-12T10:20:25;101204.19;;;23.25
8533;BMP280;4304;53.876;10.662;2023-09-12T10:22:59;101219.16;;;23.18
8533;BMP280;4304;53.876;10.662;2023-09-12T10:25:28;101216.31;;;23.20
8533;BMP280;4304;53.876;10.662;2023-09-12T10:27:54;101223.28;;;23.21
8533;BMP280;4304;53.876;10.662;2023-09-12T10:30:22;101205.88;;;23.18
8533;BMP280;4304;53.876;10.662;2023-09-12T10:32:48;101210.81;;;23.29
8533;BMP280;4304;53.876;10.662;2023-09-12T10:35:15;101206.66;;;23.35
8533;BMP280;4304;53.876;10.662;2023-09-12T10:37:41;101200.34;;;23.36
8533;BMP280;4304;53.876;10.662;2023-09-12T10:40:11;101206.44;;;23.44
8533;BMP280;4304;53.876;10.662;2023-09-12T10:42:39;101207.06;;;23.54
8533;BMP280;4304;53.876;10.662;2023-09-12T10:45:05;101196.34;;;23.70
8533;BMP280;4304;53.876;10.662;2023-09-12T10:47:32;101202.16;;;23.73
8533;BMP280;4304;53.876;10.662;2023-09-12T10:49:58;101205.16;;;23.70
8533;BMP280;4304;53.876;10.662;2023-09-12T10:52:27;101193.19;;;23.74
8533;BMP280;4304;53.876;10.662;2023-09-12T10:54:53;101193.38;;;23.95
8533;BMP280;4304;53.876;10.662;2023-09-12T10:57:19;101189.22;;;23.93
8533;BMP280;4304;53.876;10.662;2023-09-12T11:02:30;101186.16;;;24.03
8533;BMP280;4304;53.876;10.662;2023-09-12T11:04:56;101183.78;;;23.86
8533;BMP280;4304;53.876;10.662;2023-09-12T11:12:50;101175.03;;;23.86
8533;BMP280;4304;53.876;10.662;2023-09-12T11:15:17;101181.44;;;23.91
8533;BMP280;4304;53.876;10.662;2023-09-12T11:17:46;101195.44;;;23.85
8533;BMP280;4304;53.876;10.662;2023-09-12T11:20:13;101188.63;;;23.83
8533;BMP280;4304;53.876;10.662;2023-09-12T11:22:43;101188.22;;;23.71
8533;BMP280;4304;53.876;10.662;2023-09-12T11:25:25;101188.91;;;23.73
8533;BMP280;4304;53.876;10.662;2023-09-12T11:32:45;101193.34;;;23.73
8533;BMP280;4304;53.876;10.662;2023-09-12T11:35:11;101183.28;;;23.60
8533;BMP280;4304;53.876;10.662;2023-09-12T11:37:36;101191.31;;;23.53
8533;BMP280;4304;53.876;10.662;2023-09-12T11:40:16;101200.78;;;23.47
8533;BMP280;4304;53.876;10.662;2023-09-12T11:42:42;101204.81;;;23.35
8533;BMP280;4304;53.876;10.662;2023-09-12T11:45:11;101200.38;;;23.28
8533;BMP280;4304;53.876;10.662;2023-09-12T11:47:40;101199.44;;;23.21
8533;BMP280;4304;53.876;10.662;2023-09-12T11:50:06;101195.59;;;23.23
8533;BMP280;4304;53.876;10.662;2023-09-12T11:52:36;101197.03;;;23.34
8533;BMP280;4304;53.876;10.662;2023-09-12T11:55:02;101201.34;;;23.35
8533;BMP280;4304;53.876;10.662;2023-09-12T11:57:29;101198.56;;;23.28
8533;BMP280;4304;53.876;10.662;2023-09-12T11:59:55;101197.59;;;23.21
8533;BMP280;4304;53.876;10.662;2023-09-12T12:02:21;101200.94;;;23.08
8533;BMP280;4304;53.876;10.662;2023-09-12T12:04:46;101197.50;;;22.99
8533;BMP280;4304;53.876;10.662;2023-09-12T12:07:12;101199.00;;;23.02
8533;BMP280;4304;53.876;10.662;2023-09-12T12:09:38;101193.69;;;23.10
8533;BMP280;4304;53.876;10.662;2023-09-12T12:12:09;101205.47;;;22.91
8533;BMP280;4304;53.876;10.662;2023-09-12T12:14:35;101207.47;;;22.81
8533;BMP280;4304;53.876;10.662;2023-09-12T12:17:11;101206.97;;;22.78
8533;BMP280;4304;53.876;10.662;2023-09-12T12:19:37;101193.94;;;22.69
8533;BMP280;4304;53.876;10.662;2023-09-12T12:22:04;101205.34;;;22.69
8533;BMP280;4304;53.876;10.662;2023-09-12T12:24:40;101200.88;;;22.70
8533;BMP280;4304;53.876;10.662;2023-09-12T12:27:06;101205.34;;;22.77
8533;BMP280;4304;53.876;10.662;2023-09-12T12:29:34;101197.06;;;22.80
8533;BMP280;4304;53.876;10.662;2023-09-12T12:32:00;101202.69;;;22.77
8533;BMP280;4304;53.876;10.662;2023-09-12T12:34:27;101200.69;;;22.79
8533;BMP280;4304;53.876;10.662;2023-09-12T12:36:54;101191.25;;;22.76
8533;BMP280;4304;53.876;10.662;2023-09-12T12:39:20;101194.44;;;22.64
8533;BMP280;4304;53.876;10.662;2023-09-12T12:41:46;101194.59;;;22.63
8533;BMP280;4304;53.876;10.662;2023-09-12T12:44:11;101178.06;;;22.61
8533;BMP280;4304;53.876;10.662;2023-09-12T12:46:51;101176.88;;;22.63
8533;BMP280;4304;53.876;10.662;2023-09-12T12:49:17;101172.59;;;22.62
8533;BMP280;4304;53.876;10.662;2023-09-12T12:51:43;101170.09;;;22.61
8533;BMP280;4304;53.876;10.662;2023-09-12T12:54:09;101170.75;;;22.55
8533;BMP280;4304;53.876;10.662;2023-09-12T12:56:34;101152.69;;;22.58
8533;BMP280;4304;53.876;10.662;2023-09-12T12:59:01;101150.59;;;22.54
8533;BMP280;4304;53.876;10.662;2023-09-12T13:01:32;101139.63;;;22.57
8533;BMP280;4304;53.876;10.662;2023-09-12T13:03:58;101126.84;;;22.60
8533;BMP280;4304;53.876;10.662;2023-09-12T13:06:23;101111.97;;;22.59
8533;BMP280;4304;53.876;10.662;2023-09-12T13:08:51;101123.22;;;22.69
8533;BMP280;4304;53.876;10.662;2023-09-12T13:11:16;101101.53;;;22.66
8533;BMP280;4304;53.876;10.662;2023-09-12T13:13:42;101102.81;;;22.70
8533;BMP280;4304;53.876;10.662;2023-09-12T13:16:10;101092.72;;;22.65
8533;BMP280;4304;53.876;10.662;2023-09-12T13:18:37;101089.41;;;22.71
8533;BMP280;4304;53.876;10.662;2023-09-12T13:21:03;101093.03;;;22.70
8533;BMP280;4304;53.876;10.662;2023-09-12T13:23:29;101093.03;;;22.70
8533;BMP280;4304;53.876;10.662;2023-09-12T13:25:55;101085.91;;;22.78
8533;BMP280;4304;53.876;10.662;2023-09-12T13:28:21;101081.28;;;22.73
8533;BMP280;4304;53.876;10.662;2023-09-12T13:30:48;101077.66;;;22.73
8533;BMP280;4304;53.876;10.662;2023-09-12T13:33:14;101079.13;;;22.76
8533;BMP280;4304;53.876;10.662;2023-09-12T13:35:41;101084.38;;;22.84
8533;BMP280;4304;53.876;10.662;2023-09-12T13:38:09;101080.84;;;22.99
8533;BMP280;4304;53.876;10.662;2023-09-12T13:40:41;101091.84;;;22.88
8533;BMP280;4304;53.876;10.662;2023-09-12T13:43:07;101092.00;;;22.87
8533;BMP280;4304;53.876;10.662;2023-09-12T13:45:33;101100.94;;;22.94
8533;BMP280;4304;53.876;10.662;2023-09-12T13:47:59;101112.19;;;22.96
8533;BMP280;4304;53.876;10.662;2023-09-12T13:50:28;101118.13;;;22.98
8533;BMP280;4304;53.876;10.662;2023-09-12T13:52:58;101117.47;;;23.04
8533;BMP280;4304;53.876;10.662;2023-09-12T13:55:29;101132.59;;;22.95
8533;BMP280;4304;53.876;10.662;2023-09-12T13:57:54;101117.53;;;22.80
8533;BMP280;4304;53.876;10.662;2023-09-12T14:00:20;101132.75;;;22.86
8533;BMP280;4304;53.876;10.662;2023-09-12T14:02:45;101118.16;;;22.90
8533;BMP280;4304;53.876;10.662;2023-09-12T14:05:12;101119.31;;;22.87
8533;BMP280;4304;53.876;10.662;2023-09-12T14:07:37;101124.16;;;22.84
8533;BMP280;4304;53.876;10.662;2023-09-12T14:10:07;101130.22;;;23.08
8533;BMP280;4304;53.876;10.662;2023-09-12T14:12:32;101118.84;;;23.22
8533;BMP280;4304;53.876;10.662;2023-09-12T14:14:58;101116.34;;;23.28
8533;BMP280;4304;53.876;10.662;2023-09-12T14:17:23;101113.69;;;23.28
8533;BMP280;4304;53.876;10.662;2023-09-12T14:19:48;101120.06;;;23.42
8533;BMP280;4304;53.876;10.662;2023-09-12T14:22:14;101120.91;;;23.42
8533;BMP280;4304;53.876;10.662;2023-09-12T14:24:39;101124.50;;;23.19